Ruma, Illinois
Current Conditions -  °F | °C
As of 2:15 AM on Thursday 27 Nov 2014 (Local Time) from KSAR Reporting Station
Haze Haze  
Wind Chill: 21°   Ceiling: 700
Heat Index: 31°   Visibility: 5mi
Dew Point: 30°   Wind: 13mph
Humidity: 95%   Direction: 340°NNW
Pressure: 30.28"   Gusts: 18mph
Location:  38.1575°N, 89.9813°W
Report Text: KSAR 270815Z AUTO 34011G16KT 5SM BR OVC007 M01/M01 A3028 RMK AO2 T10061013
Loading
Personal Weather Stations






























Interactive Weather Map New forecast layout! Learn more

10-Day Weather Forecast

Advertisements
Track Severe Weather on mobile